sensor_id;sensor_type;location;lat;lon;timestamp;temperature;humidity
53802;DHT22;39709;53.334;6.534;2023-02-01T00:01:41;7.10;1.00
53802;DHT22;39709;53.334;6.534;2023-02-01T00:04:07;7.10;1.00
53802;DHT22;39709;53.334;6.534;2023-02-01T00:06:33;7.10;1.00
53802;DHT22;39709;53.334;6.534;2023-02-01T00:08:58;7.30;1.00
53802;DHT22;39709;53.334;6.534;2023-02-01T00:11:24;7.20;1.00
53802;DHT22;39709;53.334;6.534;2023-02-01T00:13:51;7.30;1.00
53802;DHT22;39709;53.334;6.534;2023-02-01T00:16:19;7.30;1.00
53802;DHT22;39709;53.334;6.534;2023-02-01T00:18:46;7.30;1.00
53802;DHT22;39709;53.334;6.534;2023-02-01T00:21:13;7.40;1.00
53802;DHT22;39709;53.334;6.534;2023-02-01T00:23:39;7.40;1.00
53802;DHT22;39709;53.334;6.534;2023-02-01T00:26:10;7.30;1.00
53802;DHT22;39709;53.334;6.534;2023-02-01T00:28:37;7.40;1.00
53802;DHT22;39709;53.334;6.534;2023-02-01T00:31:04;7.10;1.00
53802;DHT22;39709;53.334;6.534;2023-02-01T00:33:31;7.10;1.00
53802;DHT22;39709;53.334;6.534;2023-02-01T00:36:01;7.10;1.00
53802;DHT22;39709;53.334;6.534;2023-02-01T00:38:28;7.00;1.00
53802;DHT22;39709;53.334;6.534;2023-02-01T00:40:56;6.90;1.00
53802;DHT22;39709;53.334;6.534;2023-02-01T00:43:26;7.00;1.00
53802;DHT22;39709;53.334;6.534;2023-02-01T00:45:52;7.00;1.00
53802;DHT22;39709;53.334;6.534;2023-02-01T00:48:18;7.10;1.00
53802;DHT22;39709;53.334;6.534;2023-02-01T00:50:44;7.10;1.00
53802;DHT22;39709;53.334;6.534;2023-02-01T00:53:10;7.10;1.00
53802;DHT22;39709;53.334;6.534;2023-02-01T00:55:36;7.20;1.00
53802;DHT22;39709;53.334;6.534;2023-02-01T00:58:03;7.10;1.00
53802;DHT22;39709;53.334;6.534;2023-02-01T01:00:34;7.10;1.00
53802;DHT22;39709;53.334;6.534;2023-02-01T01:02:59;7.10;1.00
53802;DHT22;39709;53.334;6.534;2023-02-01T01:05:25;7.10;1.00
53802;DHT22;39709;53.334;6.534;2023-02-01T01:07:53;7.00;1.00
53802;DHT22;39709;53.334;6.534;2023-02-01T01:10:19;6.90;1.00
53802;DHT22;39709;53.334;6.534;2023-02-01T01:12:45;7.00;1.00
53802;DHT22;39709;53.334;6.534;2023-02-01T01:15:10;7.00;1.00
53802;DHT22;39709;53.334;6.534;2023-02-01T01:17:36;7.10;1.00
53802;DHT22;39709;53.334;6.534;2023-02-01T01:20:03;7.20;1.00
53802;DHT22;39709;53.334;6.534;2023-02-01T01:22:29;7.10;1.00
53802;DHT22;39709;53.334;6.534;2023-02-01T01:24:54;7.10;1.00
53802;DHT22;39709;53.334;6.534;2023-02-01T01:27:20;7.00;1.00
53802;DHT22;39709;53.334;6.534;2023-02-01T01:29:49;7.10;1.00
53802;DHT22;39709;53.334;6.534;2023-02-01T01:32:15;7.00;1.00
53802;DHT22;39709;53.334;6.534;2023-02-01T01:34:41;7.00;1.00
53802;DHT22;39709;53.334;6.534;2023-02-01T01:37:06;7.00;1.00
53802;DHT22;39709;53.334;6.534;2023-02-01T01:39:32;7.00;1.00
53802;DHT22;39709;53.334;6.534;2023-02-01T01:41:58;6.80;1.00
53802;DHT22;39709;53.334;6.534;2023-02-01T01:45:02;6.90;1.00
53802;DHT22;39709;53.334;6.534;2023-02-01T01:47:43;6.90;1.00
53802;DHT22;39709;53.334;6.534;2023-02-01T01:50:13;6.90;1.00
53802;DHT22;39709;53.334;6.534;2023-02-01T01:52:44;6.90;1.00
53802;DHT22;39709;53.334;6.534;2023-02-01T01:55:13;6.80;1.00
53802;DHT22;39709;53.334;6.534;2023-02-01T01:57:43;6.90;1.00
53802;DHT22;39709;53.334;6.534;2023-02-01T02:00:13;6.80;1.00
53802;DHT22;39709;53.334;6.534;2023-02-01T02:02:42;6.70;1.00
53802;DHT22;39709;53.334;6.534;2023-02-01T02:05:09;6.70;1.00
53802;DHT22;39709;53.334;6.534;2023-02-01T02:07:40;6.70;1.00
53802;DHT22;39709;53.334;6.534;2023-02-01T02:10:09;6.60;1.00
53802;DHT22;39709;53.334;6.534;2023-02-01T02:12:39;6.50;1.00
53802;DHT22;39709;53.334;6.534;2023-02-01T02:15:07;6.40;1.00
53802;DHT22;39709;53.334;6.534;2023-02-01T02:18:15;6.60;1.00
53802;DHT22;39709;53.334;6.534;2023-02-01T02:26:50;6.40;1.00
53802;DHT22;39709;53.334;6.534;2023-02-01T02:34:57;6.50;1.00
53802;DHT22;39709;53.334;6.534;2023-02-01T02:37:39;6.70;1.00
53802;DHT22;39709;53.334;6.534;2023-02-01T02:40:33;6.70;1.00
53802;DHT22;39709;53.334;6.534;2023-02-01T02:43:35;6.60;1.00
53802;DHT22;39709;53.334;6.534;2023-02-01T02:46:25;6.50;1.00
53802;DHT22;39709;53.334;6.534;2023-02-01T02:49:25;6.60;1.00
53802;DHT22;39709;53.334;6.534;2023-02-01T02:52:03;6.60;1.00
53802;DHT22;39709;53.334;6.534;2023-02-01T02:54:49;6.50;1.00
53802;DHT22;39709;53.334;6.534;2023-02-01T02:57:37;6.60;1.00
53802;DHT22;39709;53.334;6.534;2023-02-01T03:00:28;6.60;1.00
53802;DHT22;39709;53.334;6.534;2023-02-01T03:03:13;6.70;1.00
53802;DHT22;39709;53.334;6.534;2023-02-01T03:05:57;6.80;1.00
53802;DHT22;39709;53.334;6.534;2023-02-01T03:08:25;6.70;1.00
53802;DHT22;39709;53.334;6.534;2023-02-01T03:11:07;6.70;1.00
53802;DHT22;39709;53.334;6.534;2023-02-01T03:16:24;6.80;1.00
53802;DHT22;39709;53.334;6.534;2023-02-01T03:18:58;6.90;1.00
53802;DHT22;39709;53.334;6.534;2023-02-01T03:24:47;7.00;1.00
53802;DHT22;39709;53.334;6.534;2023-02-01T03:30:04;7.00;1.00
53802;DHT22;39709;53.334;6.534;2023-02-01T03:32:32;6.80;1.00
53802;DHT22;39709;53.334;6.534;2023-02-01T03:35:23;6.90;1.00
53802;DHT22;39709;53.334;6.534;2023-02-01T03:38:01;6.90;1.00
53802;DHT22;39709;53.334;6.534;2023-02-01T03:40:33;7.10;1.00
53802;DHT22;39709;53.334;6.534;2023-02-01T03:43:01;7.00;1.00
53802;DHT22;39709;53.334;6.534;2023-02-01T03:45:34;7.00;1.00
53802;DHT22;39709;53.334;6.534;2023-02-01T03:48:02;6.90;1.00
53802;DHT22;39709;53.334;6.534;2023-02-01T03:50:30;6.90;1.00
53802;DHT22;39709;53.334;6.534;2023-02-01T03:53:07;6.70;1.00
53802;DHT22;39709;53.334;6.534;2023-02-01T03:55:34;6.60;1.00
53802;DHT22;39709;53.334;6.534;2023-02-01T03:58:11;6.80;1.00
53802;DHT22;39709;53.334;6.534;2023-02-01T04:00:38;6.60;1.00
53802;DHT22;39709;53.334;6.534;2023-02-01T04:03:04;6.80;1.00
53802;DHT22;39709;53.334;6.534;2023-02-01T04:05:30;6.80;1.00
53802;DHT22;39709;53.334;6.534;2023-02-01T04:07:57;6.90;1.00
53802;DHT22;39709;53.334;6.534;2023-02-01T04:10:23;7.00;1.00
53802;DHT22;39709;53.334;6.534;2023-02-01T04:12:48;7.00;1.00
53802;DHT22;39709;53.334;6.534;2023-02-01T04:15:14;7.10;1.00
53802;DHT22;39709;53.334;6.534;2023-02-01T04:17:40;7.00;1.00
53802;DHT22;39709;53.334;6.534;2023-02-01T04:20:06;7.00;1.00
53802;DHT22;39709;53.334;6.534;2023-02-01T04:22:31;6.90;1.00
53802;DHT22;39709;53.334;6.534;2023-02-01T04:24:57;6.90;1.00
53802;DHT22;39709;53.334;6.534;2023-02-01T04:27:23;6.80;1.00
53802;DHT22;39709;53.334;6.534;2023-02-01T04:29:49;6.90;1.00
53802;DHT22;39709;53.334;6.534;2023-02-01T04:32:18;6.80;1.00
53802;DHT22;39709;53.334;6.534;2023-02-01T04:34:45;6.80;1.00
53802;DHT22;39709;53.334;6.534;2023-02-01T04:37:11;6.70;1.00
53802;DHT22;39709;53.334;6.534;2023-02-01T04:39:36;6.90;1.00
53802;DHT22;39709;53.334;6.534;2023-02-01T04:42:02;6.90;1.00
53802;DHT22;39709;53.334;6.534;2023-02-01T04:44:28;6.90;1.00
53802;DHT22;39709;53.334;6.534;2023-02-01T04:46:54;7.10;1.00
53802;DHT22;39709;53.334;6.534;2023-02-01T04:49:19;6.70;1.00
53802;DHT22;39709;53.334;6.534;2023-02-01T04:51:47;6.80;1.00
53802;DHT22;39709;53.334;6.534;2023-02-01T04:54:13;6.90;1.00
53802;DHT22;39709;53.334;6.534;2023-02-01T04:56:39;6.90;1.00
53802;DHT22;39709;53.334;6.534;2023-02-01T04:59:05;7.00;1.00
53802;DHT22;39709;53.334;6.534;2023-02-01T05:01:31;6.80;1.00
53802;DHT22;39709;53.334;6.534;2023-02-01T05:03:56;6.80;1.00
53802;DHT22;39709;53.334;6.534;2023-02-01T05:06:22;6.90;1.00
53802;DHT22;39709;53.334;6.534;2023-02-01T05:08:48;6.90;1.00
53802;DHT22;39709;53.334;6.534;2023-02-01T05:11:14;7.00;1.00
53802;DHT22;39709;53.334;6.534;2023-02-01T05:13:59;6.90;1.00
53802;DHT22;39709;53.334;6.534;2023-02-01T05:16:25;7.00;1.00
53802;DHT22;39709;53.334;6.534;2023-02-01T05:18:51;7.00;1.00
53802;DHT22;39709;53.334;6.534;2023-02-01T05:21:17;6.90;1.00
53802;DHT22;39709;53.334;6.534;2023-02-01T05:23:43;7.00;1.00
53802;DHT22;39709;53.334;6.534;2023-02-01T05:26:27;6.90;1.00
53802;DHT22;39709;53.334;6.534;2023-02-01T05:28:52;7.00;1.00
53802;DHT22;39709;53.334;6.534;2023-02-01T05:31:18;7.00;1.00
53802;DHT22;39709;53.334;6.534;2023-02-01T05:33:44;7.00;1.00
53802;DHT22;39709;53.334;6.534;2023-02-01T05:36:09;6.80;1.00
53802;DHT22;39709;53.334;6.534;2023-02-01T05:38:35;7.00;1.00
53802;DHT22;39709;53.334;6.534;2023-02-01T05:41:01;7.00;1.00
53802;DHT22;39709;53.334;6.534;2023-02-01T05:43:27;6.80;1.00
53802;DHT22;39709;53.334;6.534;2023-02-01T05:45:52;6.90;1.00
53802;DHT22;39709;53.334;6.534;2023-02-01T05:48:19;7.00;1.00
53802;DHT22;39709;53.334;6.534;2023-02-01T05:50:45;7.00;1.00
53802;DHT22;39709;53.334;6.534;2023-02-01T05:53:11;7.10;1.00
53802;DHT22;39709;53.334;6.534;2023-02-01T05:55:37;7.00;1.00
53802;DHT22;39709;53.334;6.534;2023-02-01T05:58:03;7.20;1.00
53802;DHT22;39709;53.334;6.534;2023-02-01T06:00:29;7.10;1.00
53802;DHT22;39709;53.334;6.534;2023-02-01T06:02:55;7.10;1.00
53802;DHT22;39709;53.334;6.534;2023-02-01T06:05:21;7.10;1.00
53802;DHT22;39709;53.334;6.534;2023-02-01T06:07:47;6.90;1.00
53802;DHT22;39709;53.334;6.534;2023-02-01T06:10:16;6.90;1.00
53802;DHT22;39709;53.334;6.534;2023-02-01T06:12:42;6.90;1.00
53802;DHT22;39709;53.334;6.534;2023-02-01T06:15:08;7.00;1.00
53802;DHT22;39709;53.334;6.534;2023-02-01T06:17:34;7.00;1.00
53802;DHT22;39709;53.334;6.534;2023-02-01T06:20:00;7.00;1.00
53802;DHT22;39709;53.334;6.534;2023-02-01T06:22:25;6.80;1.00
53802;DHT22;39709;53.334;6.534;2023-02-01T06:24:51;7.10;1.00
53802;DHT22;39709;53.334;6.534;2023-02-01T06:27:16;7.00;1.00
53802;DHT22;39709;53.334;6.534;2023-02-01T06:29:42;7.00;1.00
53802;DHT22;39709;53.334;6.534;2023-02-01T06:32:08;7.00;1.00
53802;DHT22;39709;53.334;6.534;2023-02-01T06:34:34;6.90;1.00
53802;DHT22;39709;53.334;6.534;2023-02-01T06:37:00;6.90;1.00
53802;DHT22;39709;53.334;6.534;2023-02-01T06:39:26;6.60;1.00
53802;DHT22;39709;53.334;6.534;2023-02-01T06:41:52;6.80;1.00
53802;DHT22;39709;53.334;6.534;2023-02-01T06:44:18;6.80;1.00
53802;DHT22;39709;53.334;6.534;2023-02-01T06:46:44;6.50;1.00
53802;DHT22;39709;53.334;6.534;2023-02-01T06:49:10;6.70;1.00
53802;DHT22;39709;53.334;6.534;2023-02-01T06:51:35;6.80;1.00
53802;DHT22;39709;53.334;6.534;2023-02-01T06:54:01;6.90;1.00
53802;DHT22;39709;53.334;6.534;2023-02-01T06:56:27;6.80;1.00
53802;DHT22;39709;53.334;6.534;2023-02-01T06:58:53;6.90;1.00
53802;DHT22;39709;53.334;6.534;2023-02-01T07:01:19;6.90;1.00
53802;DHT22;39709;53.334;6.534;2023-02-01T07:03:49;6.90;1.00
53802;DHT22;39709;53.334;6.534;2023-02-01T07:06:16;7.00;1.00
53802;DHT22;39709;53.334;6.534;2023-02-01T07:08:43;6.80;1.00
53802;DHT22;39709;53.334;6.534;2023-02-01T07:11:10;6.90;1.00
53802;DHT22;39709;53.334;6.534;2023-02-01T07:13:37;6.80;1.00
53802;DHT22;39709;53.334;6.534;2023-02-01T07:16:05;6.70;1.00
53802;DHT22;39709;53.334;6.534;2023-02-01T07:18:31;6.70;1.00
53802;DHT22;39709;53.334;6.534;2023-02-01T07:20:57;6.90;1.00
53802;DHT22;39709;53.334;6.534;2023-02-01T07:23:24;6.80;1.00
53802;DHT22;39709;53.334;6.534;2023-02-01T07:25:53;6.70;1.00
53802;DHT22;39709;53.334;6.534;2023-02-01T07:28:19;6.80;1.00
53802;DHT22;39709;53.334;6.534;2023-02-01T07:30:45;6.70;1.00
53802;DHT22;39709;53.334;6.534;2023-02-01T07:33:19;6.80;1.00
53802;DHT22;39709;53.334;6.534;2023-02-01T07:35:46;6.70;1.00
53802;DHT22;39709;53.334;6.534;2023-02-01T07:38:11;6.90;1.00
53802;DHT22;39709;53.334;6.534;2023-02-01T07:40:37;6.90;1.00
53802;DHT22;39709;53.334;6.534;2023-02-01T07:43:03;6.90;1.00
53802;DHT22;39709;53.334;6.534;2023-02-01T07:45:31;6.90;1.00
53802;DHT22;39709;53.334;6.534;2023-02-01T07:47:57;6.90;1.00
53802;DHT22;39709;53.334;6.534;2023-02-01T07:50:23;6.80;1.00
53802;DHT22;39709;53.334;6.534;2023-02-01T07:52:48;6.90;1.00
53802;DHT22;39709;53.334;6.534;2023-02-01T07:55:14;7.00;1.00
53802;DHT22;39709;53.334;6.534;2023-02-01T07:57:40;6.80;1.00
53802;DHT22;39709;53.334;6.534;2023-02-01T08:00:06;6.80;1.00
53802;DHT22;39709;53.334;6.534;2023-02-01T08:02:50;6.90;1.00
53802;DHT22;39709;53.334;6.534;2023-02-01T08:05:16;7.00;1.00
53802;DHT22;39709;53.334;6.534;2023-02-01T08:07:41;6.90;1.00
53802;DHT22;39709;53.334;6.534;2023-02-01T08:10:07;7.00;1.00
53802;DHT22;39709;53.334;6.534;2023-02-01T08:12:36;7.10;1.00
53802;DHT22;39709;53.334;6.534;2023-02-01T08:15:03;7.00;1.00
53802;DHT22;39709;53.334;6.534;2023-02-01T08:17:29;7.20;1.00
53802;DHT22;39709;53.334;6.534;2023-02-01T08:19:55;7.10;1.00
53802;DHT22;39709;53.334;6.534;2023-02-01T08:22:20;7.10;1.00
53802;DHT22;39709;53.334;6.534;2023-02-01T08:24:49;7.20;1.00
53802;DHT22;39709;53.334;6.534;2023-02-01T08:27:15;7.30;1.00
53802;DHT22;39709;53.334;6.534;2023-02-01T08:29:40;7.10;1.00
53802;DHT22;39709;53.334;6.534;2023-02-01T08:32:06;7.30;1.00
53802;DHT22;39709;53.334;6.534;2023-02-01T08:34:32;7.20;1.00
53802;DHT22;39709;53.334;6.534;2023-02-01T08:36:58;7.00;1.00
53802;DHT22;39709;53.334;6.534;2023-02-01T08:39:24;7.00;1.00
53802;DHT22;39709;53.334;6.534;2023-02-01T08:41:50;6.90;1.00
53802;DHT22;39709;53.334;6.534;2023-02-01T08:44:34;6.90;1.00
53802;DHT22;39709;53.334;6.534;2023-02-01T08:47:00;7.00;1.00
53802;DHT22;39709;53.334;6.534;2023-02-01T08:49:26;6.80;1.00
53802;DHT22;39709;53.334;6.534;2023-02-01T08:51:52;6.80;1.00
53802;DHT22;39709;53.334;6.534;2023-02-01T08:54:18;6.70;1.00
53802;DHT22;39709;53.334;6.534;2023-02-01T08:56:43;6.80;1.00
53802;DHT22;39709;53.334;6.534;2023-02-01T08:59:09;6.80;1.00
53802;DHT22;39709;53.334;6.534;2023-02-01T09:01:34;6.80;1.00
53802;DHT22;39709;53.334;6.534;2023-02-01T09:04:00;6.90;1.00
53802;DHT22;39709;53.334;6.534;2023-02-01T09:06:26;6.90;1.00
53802;DHT22;39709;53.334;6.534;2023-02-01T09:08:51;6.70;1.00
53802;DHT22;39709;53.334;6.534;2023-02-01T09:11:18;6.90;1.00
53802;DHT22;39709;53.334;6.534;2023-02-01T09:13:46;6.80;1.00
53802;DHT22;39709;53.334;6.534;2023-02-01T09:16:12;6.80;1.00
53802;DHT22;39709;53.334;6.534;2023-02-01T09:18:38;6.80;1.00
53802;DHT22;39709;53.334;6.534;2023-02-01T09:21:05;6.80;1.00
53802;DHT22;39709;53.334;6.534;2023-02-01T09:23:32;6.80;1.00
53802;DHT22;39709;53.334;6.534;2023-02-01T09:26:02;6.90;1.00
53802;DHT22;39709;53.334;6.534;2023-02-01T09:28:28;6.70;1.00
53802;DHT22;39709;53.334;6.534;2023-02-01T09:30:58;6.80;1.00
53802;DHT22;39709;53.334;6.534;2023-02-01T09:33:24;6.80;1.00
53802;DHT22;39709;53.334;6.534;2023-02-01T09:35:58;7.00;1.00
53802;DHT22;39709;53.334;6.534;2023-02-01T09:38:25;6.80;1.00
53802;DHT22;39709;53.334;6.534;2023-02-01T09:40:53;6.80;1.00
53802;DHT22;39709;53.334;6.534;2023-02-01T09:48:52;6.90;1.00
53802;DHT22;39709;53.334;6.534;2023-02-01T09:51:23;6.90;1.00
53802;DHT22;39709;53.334;6.534;2023-02-01T09:54:16;6.90;1.00
53802;DHT22;39709;53.334;6.534;2023-02-01T09:56:47;6.80;1.00
53802;DHT22;39709;53.334;6.534;2023-02-01T10:01:56;6.80;1.00
53802;DHT22;39709;53.334;6.534;2023-02-01T10:04:22;6.80;1.00
53802;DHT22;39709;53.334;6.534;2023-02-01T10:15:42;6.60;1.00
53802;DHT22;39709;53.334;6.534;2023-02-01T10:26:25;6.70;1.00
53802;DHT22;39709;53.334;6.534;2023-02-01T10:28:58;6.60;1.00
53802;DHT22;39709;53.334;6.534;2023-02-01T10:31:28;6.70;1.00
53802;DHT22;39709;53.334;6.534;2023-02-01T10:33:59;6.80;1.00
53802;DHT22;39709;53.334;6.534;2023-02-01T10:36:29;6.80;1.00
53802;DHT22;39709;53.334;6.534;2023-02-01T10:39:00;6.90;1.00
53802;DHT22;39709;53.334;6.534;2023-02-01T10:41:31;7.00;1.00
53802;DHT22;39709;53.334;6.534;2023-02-01T10:43:59;7.00;1.00
53802;DHT22;39709;53.334;6.534;2023-02-01T10:46:26;7.00;1.00
53802;DHT22;39709;53.334;6.534;2023-02-01T10:48:55;7.00;1.00
53802;DHT22;39709;53.334;6.534;2023-02-01T10:52:10;6.90;1.00
53802;DHT22;39709;53.334;6.534;2023-02-01T10:54:33;6.80;1.00
53802;DHT22;39709;53.334;6.534;2023-02-01T10:56:59;7.00;1.00
53802;DHT22;39709;53.334;6.534;2023-02-01T10:59:28;7.00;1.00
53802;DHT22;39709;53.334;6.534;2023-02-01T11:02:05;7.10;1.00
53802;DHT22;39709;53.334;6.534;2023-02-01T11:04:38;7.10;1.00
53802;DHT22;39709;53.334;6.534;2023-02-01T11:07:23;7.10;1.00
53802;DHT22;39709;53.334;6.534;2023-02-01T11:09:51;6.40;1.00
53802;DHT22;39709;53.334;6.534;2023-02-01T11:12:38;5.40;1.00
53802;DHT22;39709;53.334;6.534;2023-02-01T11:15:23;4.50;1.00
53802;DHT22;39709;53.334;6.534;2023-02-01T11:17:52;3.90;1.00
53802;DHT22;39709;53.334;6.534;2023-02-01T11:22:57;3.70;20.20
53802;DHT22;39709;53.334;6.534;2023-02-01T11:25:23;3.70;27.70
53802;DHT22;39709;53.334;6.534;2023-02-01T11:27:50;3.50;24.30
53802;DHT22;39709;53.334;6.534;2023-02-01T11:30:38;3.50;33.00
53802;DHT22;39709;53.334;6.534;2023-02-01T11:33:07;3.20;54.80
53802;DHT22;39709;53.334;6.534;2023-02-01T11:35:37;3.30;73.90
53802;DHT22;39709;53.334;6.534;2023-02-01T11:38:21;3.30;92.70
53802;DHT22;39709;53.334;6.534;2023-02-01T11:40:47;3.20;98.80
53802;DHT22;39709;53.334;6.534;2023-02-01T11:43:26;3.20;99.90
53802;DHT22;39709;53.334;6.534;2023-02-01T11:45:59;3.00;99.90
53802;DHT22;39709;53.334;6.534;2023-02-01T11:48:30;3.40;99.90
53802;DHT22;39709;53.334;6.534;2023-02-01T11:53:59;3.40;99.90
53802;DHT22;39709;53.334;6.534;2023-02-01T11:59:23;3.40;99.90
53802;DHT22;39709;53.334;6.534;2023-02-01T12:02:02;3.80;99.90
53802;DHT22;39709;53.334;6.534;2023-02-01T12:07:14;3.70;99.90
53802;DHT22;39709;53.334;6.534;2023-02-01T12:10:00;3.70;99.90
53802;DHT22;39709;53.334;6.534;2023-02-01T12:43:45;5.80;99.90
53802;DHT22;39709;53.334;6.534;2023-02-01T12:49:03;5.60;99.90
53802;DHT22;39709;53.334;6.534;2023-02-01T12:51:37;5.80;99.90
53802;DHT22;39709;53.334;6.534;2023-02-01T12:54:22;6.00;99.90
53802;DHT22;39709;53.334;6.534;2023-02-01T12:57:06;6.10;99.90
53802;DHT22;39709;53.334;6.534;2023-02-01T13:02:39;6.10;45.50
53802;DHT22;39709;53.334;6.534;2023-02-01T13:05:22;6.50;33.60
53802;DHT22;39709;53.334;6.534;2023-02-01T13:08:02;6.30;1.00
53802;DHT22;39709;53.334;6.534;2023-02-01T13:10:42;6.50;1.00
53802;DHT22;39709;53.334;6.534;2023-02-01T13:16:11;6.20;1.00
53802;DHT22;39709;53.334;6.534;2023-02-01T13:18:42;6.50;1.00
53802;DHT22;39709;53.334;6.534;2023-02-01T13:21:13;6.30;2.60
53802;DHT22;39709;53.334;6.534;2023-02-01T13:23:41;6.40;1.00
53802;DHT22;39709;53.334;6.534;2023-02-01T13:26:10;6.50;1.00
53802;DHT22;39709;53.334;6.534;2023-02-01T13:29:04;6.50;1.00
53802;DHT22;39709;53.334;6.534;2023-02-01T13:37:23;6.80;1.00
53802;DHT22;39709;53.334;6.534;2023-02-01T13:40:26;6.80;1.00
53802;DHT22;39709;53.334;6.534;2023-02-01T13:42:59;6.80;1.00
53802;DHT22;39709;53.334;6.534;2023-02-01T13:45:27;6.80;1.00
53802;DHT22;39709;53.334;6.534;2023-02-01T13:47:57;6.80;1.00
53802;DHT22;39709;53.334;6.534;2023-02-01T13:50:35;6.90;1.00
53802;DHT22;39709;53.334;6.534;2023-02-01T13:55:39;7.00;1.00
53802;DHT22;39709;53.334;6.534;2023-02-01T13:58:39;7.00;1.00
53802;DHT22;39709;53.334;6.534;2023-02-01T14:03:48;7.00;1.00
53802;DHT22;39709;53.334;6.534;2023-02-01T14:08:44;7.00;1.00
53802;DHT22;39709;53.334;6.534;2023-02-01T14:11:33;7.00;1.00
53802;DHT22;39709;53.334;6.534;2023-02-01T14:19:28;7.10;1.00
53802;DHT22;39709;53.334;6.534;2023-02-01T14:21:56;7.00;1.00
53802;DHT22;39709;53.334;6.534;2023-02-01T14:24:29;7.10;1.00
53802;DHT22;39709;53.334;6.534;2023-02-01T14:27:17;7.10;1.00
53802;DHT22;39709;53.334;6.534;2023-02-01T14:29:51;7.00;1.00
53802;DHT22;39709;53.334;6.534;2023-02-01T14:32:35;7.10;1.00
53802;DHT22;39709;53.334;6.534;2023-02-01T14:35:07;7.10;1.00
53802;DHT22;39709;53.334;6.534;2023-02-01T14:37:38;7.00;1.00
53802;DHT22;39709;53.334;6.534;2023-02-01T14:40:13;7.00;1.00
53802;DHT22;39709;53.334;6.534;2023-02-01T14:56:06;7.10;1.00
53802;DHT22;39709;53.334;6.534;2023-02-01T14:58:55;7.10;1.00
53802;DHT22;39709;53.334;6.534;2023-02-01T15:01:23;7.10;1.00
53802;DHT22;39709;53.334;6.534;2023-02-01T15:04:10;7.00;1.00
53802;DHT22;39709;53.334;6.534;2023-02-01T15:14:44;6.90;1.00
53802;DHT22;39709;53.334;6.534;2023-02-01T15:17:32;7.00;1.00
53802;DHT22;39709;53.334;6.534;2023-02-01T15:20:30;7.10;1.00
53802;DHT22;39709;53.334;6.534;2023-02-01T15:23:01;7.10;1.00
53802;DHT22;39709;53.334;6.534;2023-02-01T15:25:31;7.00;1.00
53802;DHT22;39709;53.334;6.534;2023-02-01T15:27:58;7.00;1.00
53802;DHT22;39709;53.334;6.534;2023-02-01T15:30:26;7.00;1.00
53802;DHT22;39709;53.334;6.534;2023-02-01T15:33:07;6.90;1.00
53802;DHT22;39709;53.334;6.534;2023-02-01T15:35:43;7.00;1.00
53802;DHT22;39709;53.334;6.534;2023-02-01T15:38:32;7.00;1.00
53802;DHT22;39709;53.334;6.534;2023-02-01T15:41:20;6.90;1.00
53802;DHT22;39709;53.334;6.534;2023-02-01T15:46:36;6.80;99.90
53802;DHT22;39709;53.334;6.534;2023-02-01T15:49:04;6.80;1.00
53802;DHT22;39709;53.334;6.534;2023-02-01T15:51:31;6.80;1.00
53802;DHT22;39709;53.334;6.534;2023-02-01T15:54:01;6.80;1.00
53802;DHT22;39709;53.334;6.534;2023-02-01T15:56:33;6.70;1.00
53802;DHT22;39709;53.334;6.534;2023-02-01T15:59:01;6.80;1.00
53802;DHT22;39709;53.334;6.534;2023-02-01T16:01:27;6.80;1.00
53802;DHT22;39709;53.334;6.534;2023-02-01T16:04:29;6.90;1.00
53802;DHT22;39709;53.334;6.534;2023-02-01T16:07:03;6.80;1.00
53802;DHT22;39709;53.334;6.534;2023-02-01T16:09:46;6.70;1.00
53802;DHT22;39709;53.334;6.534;2023-02-01T16:15:08;6.70;1.00
53802;DHT22;39709;53.334;6.534;2023-02-01T16:17:34;6.60;1.00
53802;DHT22;39709;53.334;6.534;2023-02-01T16:20:00;6.60;1.00
53802;DHT22;39709;53.334;6.534;2023-02-01T16:22:26;6.70;1.00
53802;DHT22;39709;53.334;6.534;2023-02-01T16:24:52;6.60;1.00
53802;DHT22;39709;53.334;6.534;2023-02-01T16:27:18;6.60;1.00
53802;DHT22;39709;53.334;6.534;2023-02-01T16:29:43;6.60;1.00
53802;DHT22;39709;53.334;6.534;2023-02-01T16:32:27;6.50;1.00
53802;DHT22;39709;53.334;6.534;2023-02-01T16:34:53;6.50;1.00
53802;DHT22;39709;53.334;6.534;2023-02-01T16:37:23;6.50;1.00
53802;DHT22;39709;53.334;6.534;2023-02-01T16:39:50;6.50;1.00
53802;DHT22;39709;53.334;6.534;2023-02-01T16:42:16;6.50;1.00
53802;DHT22;39709;53.334;6.534;2023-02-01T16:44:42;6.50;99.90
53802;DHT22;39709;53.334;6.534;2023-02-01T16:47:19;6.50;99.90
53802;DHT22;39709;53.334;6.534;2023-02-01T16:49:45;6.50;1.00
53802;DHT22;39709;53.334;6.534;2023-02-01T16:52:22;6.50;1.00
53802;DHT22;39709;53.334;6.534;2023-02-01T16:54:49;6.50;1.00
53802;DHT22;39709;53.334;6.534;2023-02-01T16:57:17;6.50;1.00
53802;DHT22;39709;53.334;6.534;2023-02-01T16:59:43;6.50;1.00
53802;DHT22;39709;53.334;6.534;2023-02-01T17:02:15;6.50;1.00
53802;DHT22;39709;53.334;6.534;2023-02-01T17:04:41;6.40;99.90
53802;DHT22;39709;53.334;6.534;2023-02-01T17:07:17;6.40;1.00
53802;DHT22;39709;53.334;6.534;2023-02-01T17:09:44;6.30;1.00
53802;DHT22;39709;53.334;6.534;2023-02-01T17:12:27;6.30;1.00
53802;DHT22;39709;53.334;6.534;2023-02-01T17:14:55;6.40;1.00
53802;DHT22;39709;53.334;6.534;2023-02-01T17:17:21;6.30;99.90
53802;DHT22;39709;53.334;6.534;2023-02-01T17:19:51;6.30;99.90
53802;DHT22;39709;53.334;6.534;2023-02-01T17:22:22;6.30;99.90
53802;DHT22;39709;53.334;6.534;2023-02-01T17:24:48;6.20;99.90
53802;DHT22;39709;53.334;6.534;2023-02-01T17:27:15;6.20;99.90
53802;DHT22;39709;53.334;6.534;2023-02-01T17:29:41;6.20;1.00
53802;DHT22;39709;53.334;6.534;2023-02-01T17:32:22;6.30;99.90
53802;DHT22;39709;53.334;6.534;2023-02-01T17:34:48;6.30;1.00
53802;DHT22;39709;53.334;6.534;2023-02-01T17:37:29;6.30;99.90
53802;DHT22;39709;53.334;6.534;2023-02-01T17:39:55;6.30;99.90
53802;DHT22;39709;53.334;6.534;2023-02-01T17:42:26;6.30;99.90
53802;DHT22;39709;53.334;6.534;2023-02-01T17:44:55;6.30;99.90
53802;DHT22;39709;53.334;6.534;2023-02-01T17:47:22;6.30;99.90
53802;DHT22;39709;53.334;6.534;2023-02-01T17:49:48;6.30;99.90
53802;DHT22;39709;53.334;6.534;2023-02-01T17:52:21;6.40;99.90
53802;DHT22;39709;53.334;6.534;2023-02-01T17:54:47;6.40;99.90
53802;DHT22;39709;53.334;6.534;2023-02-01T17:57:15;6.40;99.90
53802;DHT22;39709;53.334;6.534;2023-02-01T17:59:42;6.50;99.90
53802;DHT22;39709;53.334;6.534;2023-02-01T18:02:21;6.50;99.90
53802;DHT22;39709;53.334;6.534;2023-02-01T18:04:48;6.50;99.90
53802;DHT22;39709;53.334;6.534;2023-02-01T18:07:15;6.50;99.90
53802;DHT22;39709;53.334;6.534;2023-02-01T18:09:40;6.40;99.90
53802;DHT22;39709;53.334;6.534;2023-02-01T18:12:19;6.40;99.90
53802;DHT22;39709;53.334;6.534;2023-02-01T18:14:46;6.40;99.90
53802;DHT22;39709;53.334;6.534;2023-02-01T18:17:12;6.40;99.90
53802;DHT22;39709;53.334;6.534;2023-02-01T18:19:37;6.50;99.90
53802;DHT22;39709;53.334;6.534;2023-02-01T18:22:03;6.60;99.90
53802;DHT22;39709;53.334;6.534;2023-02-01T18:24:30;6.60;99.90
53802;DHT22;39709;53.334;6.534;2023-02-01T18:26:58;6.50;99.90
53802;DHT22;39709;53.334;6.534;2023-02-01T18:29:24;6.50;99.90
53802;DHT22;39709;53.334;6.534;2023-02-01T18:31:50;6.60;99.90
53802;DHT22;39709;53.334;6.534;2023-02-01T18:34:16;6.50;99.90
53802;DHT22;39709;53.334;6.534;2023-02-01T18:36:47;6.50;99.90
53802;DHT22;39709;53.334;6.534;2023-02-01T18:39:13;6.40;99.90
53802;DHT22;39709;53.334;6.534;2023-02-01T18:41:39;6.40;99.90
53802;DHT22;39709;53.334;6.534;2023-02-01T18:44:05;6.30;99.90